Hovedside
METAR-TAF:

METAR-TAF

Lufthavner :

Kajana lufthavn

Kajana, Finland

breddegrad: 64-17N, lengdegrad: 027-41E, høyde over havet: 143 m

Gjeldene værobservasjon

Denne rapporten ble laget for 18 minutter siden, klokken 15:20 UTC
Vind 11 kt fra Vest, skiftende mellom Vest-sørvest og Nordvest
Temperatur 18°C
Luftfuktighet 59%
Trykk 1013 hPa
Sikt 10 km eller mer
Få skyer i en høyde av 4200 ft, Bygeskyer.

METAR: EFKI 241520Z 28011KT 250V310 9999 FEW042CB 18/10 Q1013

Tid: 18:38 (15:38 UTC)

Varsel

Denne rapporten ble laget for 1 time og 4 minutter siden, klokken 14:34 UTC
Varsel gyldig fra 24. klokken 15 UTC til 24. klokken 18 UTC
Vind 7 kt fra Vest-nordvest
Sikt 10 km eller mer
Få skyer i en høyde av 3500 ft, Bygeskyer.
Blir
fra 24. klokken 15 UTC til 24. klokken 17 UTC
Sikt 10 km eller mer
ingen skyer under 1500 m og ingen bygeskyer

TAF: EFKI 241434Z 2415/2418 29007KT 9999 FEW035CB BECMG 2415/2417 CAVOK

Værobservasjoner og værvarsel for over 4000 flyplasser (METAR- og TAF-rapporter).

Tilgjengelige stasjoner er representert av de røde og gule prikkene på kartet.

Hold musepekeren over prikken for å se navnet på stasjonen.

Klikk så for å se værobservasjoner og -varsler.

For å forandre kartet kan du klikke på den grønne knappen med svart kryss for å zoome inn, på den grønne knappen med strek for å zoome ut, eller på de grønne pilene for å se tilstøtende kart.


METAR-TAF: